Crystal, Colorado
Current Conditions -  °F | °C
As of 11:53 AM on Sunday 21 Dec 2014 (Local Time) from KASE Reporting Station
Light Snow Light Snow  
Wind Chill: 19°   Ceiling: 2000
Heat Index: 26°   Visibility: 1.5mi
Dew Point: 23°   Wind: 6mph
Humidity: 88%   Direction: 360°N
Pressure: 29.89"   Gusts: NA
Location:  39.2397°N, 107.215°W
Report Text: KASE 211853Z 36005KT 1 1/2SM -SN BR BKN020 OVC034 M03/M05 A2989 RMK AO2 SLP119 P0001 T10331050
Loading
Personal Weather Stations






























Interactive Weather Map New forecast layout! Learn more

10-Day Weather Forecast

Advertisements
Track Severe Weather on mobile